sensor_id;sensor_type;location;lat;lon;timestamp;temperature;humidity
22471;DHT22;11402;51.374;6.594;2022-08-14T00:02:14;22.80;99.90
22471;DHT22;11402;51.374;6.594;2022-08-14T00:04:40;22.70;99.90
22471;DHT22;11402;51.374;6.594;2022-08-14T00:07:06;22.70;99.90
22471;DHT22;11402;51.374;6.594;2022-08-14T00:09:31;22.60;99.90
22471;DHT22;11402;51.374;6.594;2022-08-14T00:11:57;22.50;99.90
22471;DHT22;11402;51.374;6.594;2022-08-14T00:14:25;22.40;99.90
22471;DHT22;11402;51.374;6.594;2022-08-14T00:16:51;22.40;99.90
22471;DHT22;11402;51.374;6.594;2022-08-14T00:19:17;22.20;99.90
22471;DHT22;11402;51.374;6.594;2022-08-14T00:21:43;22.10;99.90
22471;DHT22;11402;51.374;6.594;2022-08-14T00:24:08;22.10;99.90
22471;DHT22;11402;51.374;6.594;2022-08-14T00:26:34;22.00;99.90
22471;DHT22;11402;51.374;6.594;2022-08-14T00:28:59;21.90;99.90
22471;DHT22;11402;51.374;6.594;2022-08-14T00:31:25;21.90;99.90
22471;DHT22;11402;51.374;6.594;2022-08-14T00:33:52;21.90;99.90
22471;DHT22;11402;51.374;6.594;2022-08-14T00:36:22;21.90;99.90
22471;DHT22;11402;51.374;6.594;2022-08-14T00:38:48;21.80;99.90
22471;DHT22;11402;51.374;6.594;2022-08-14T00:41:13;21.40;99.90
22471;DHT22;11402;51.374;6.594;2022-08-14T00:43:39;21.40;99.90
22471;DHT22;11402;51.374;6.594;2022-08-14T00:46:07;21.50;99.90
22471;DHT22;11402;51.374;6.594;2022-08-14T00:48:33;21.50;99.90
22471;DHT22;11402;51.374;6.594;2022-08-14T00:50:59;21.50;99.90
22471;DHT22;11402;51.374;6.594;2022-08-14T00:53:25;21.30;99.90
22471;DHT22;11402;51.374;6.594;2022-08-14T00:55:52;21.20;99.90
22471;DHT22;11402;51.374;6.594;2022-08-14T00:58:20;21.10;99.90
22471;DHT22;11402;51.374;6.594;2022-08-14T01:00:55;21.20;99.90
22471;DHT22;11402;51.374;6.594;2022-08-14T01:03:21;21.10;99.90
22471;DHT22;11402;51.374;6.594;2022-08-14T01:05:49;21.10;99.90
22471;DHT22;11402;51.374;6.594;2022-08-14T01:08:20;20.90;99.90
22471;DHT22;11402;51.374;6.594;2022-08-14T01:10:47;20.90;99.90
22471;DHT22;11402;51.374;6.594;2022-08-14T01:13:28;20.80;99.90
22471;DHT22;11402;51.374;6.594;2022-08-14T01:15:56;20.80;99.90
22471;DHT22;11402;51.374;6.594;2022-08-14T01:18:24;20.70;99.90
22471;DHT22;11402;51.374;6.594;2022-08-14T01:21:09;20.60;99.90
22471;DHT22;11402;51.374;6.594;2022-08-14T01:23:51;20.60;99.90
22471;DHT22;11402;51.374;6.594;2022-08-14T01:26:19;20.60;99.90
22471;DHT22;11402;51.374;6.594;2022-08-14T01:28:46;20.50;99.90
22471;DHT22;11402;51.374;6.594;2022-08-14T01:31:15;20.50;99.90
22471;DHT22;11402;51.374;6.594;2022-08-14T01:33:43;20.50;99.90
22471;DHT22;11402;51.374;6.594;2022-08-14T01:36:13;20.40;99.90
22471;DHT22;11402;51.374;6.594;2022-08-14T01:38:41;20.40;99.90
22471;DHT22;11402;51.374;6.594;2022-08-14T01:41:10;20.40;99.90
22471;DHT22;11402;51.374;6.594;2022-08-14T01:43:57;20.40;99.90
22471;DHT22;11402;51.374;6.594;2022-08-14T01:46:30;20.40;99.90
22471;DHT22;11402;51.374;6.594;2022-08-14T01:48:57;20.40;99.90
22471;DHT22;11402;51.374;6.594;2022-08-14T01:51:24;20.60;99.90
22471;DHT22;11402;51.374;6.594;2022-08-14T01:53:53;20.30;99.90
22471;DHT22;11402;51.374;6.594;2022-08-14T01:56:20;20.20;99.90
22471;DHT22;11402;51.374;6.594;2022-08-14T01:58:48;20.10;99.90
22471;DHT22;11402;51.374;6.594;2022-08-14T02:01:18;20.00;99.90
22471;DHT22;11402;51.374;6.594;2022-08-14T02:03:45;20.10;99.90
22471;DHT22;11402;51.374;6.594;2022-08-14T02:06:12;20.20;99.90
22471;DHT22;11402;51.374;6.594;2022-08-14T02:08:39;20.00;99.90
22471;DHT22;11402;51.374;6.594;2022-08-14T02:11:07;20.00;99.90
22471;DHT22;11402;51.374;6.594;2022-08-14T02:13:52;19.80;99.90
22471;DHT22;11402;51.374;6.594;2022-08-14T02:16:21;19.80;99.90
22471;DHT22;11402;51.374;6.594;2022-08-14T02:18:54;19.80;99.90
22471;DHT22;11402;51.374;6.594;2022-08-14T02:21:21;19.80;99.90
22471;DHT22;11402;51.374;6.594;2022-08-14T02:23:47;19.80;99.90
22471;DHT22;11402;51.374;6.594;2022-08-14T02:26:25;19.80;99.90
22471;DHT22;11402;51.374;6.594;2022-08-14T02:28:59;19.60;99.90
22471;DHT22;11402;51.374;6.594;2022-08-14T02:31:30;19.80;99.90
22471;DHT22;11402;51.374;6.594;2022-08-14T02:34:08;19.80;99.90
22471;DHT22;11402;51.374;6.594;2022-08-14T02:36:38;19.60;99.90
22471;DHT22;11402;51.374;6.594;2022-08-14T02:39:05;19.50;99.90
22471;DHT22;11402;51.374;6.594;2022-08-14T02:41:32;19.50;99.90
22471;DHT22;11402;51.374;6.594;2022-08-14T02:43:59;19.50;99.90
22471;DHT22;11402;51.374;6.594;2022-08-14T02:46:24;19.40;99.90
22471;DHT22;11402;51.374;6.594;2022-08-14T02:48:50;19.40;99.90
22471;DHT22;11402;51.374;6.594;2022-08-14T02:51:16;19.40;99.90
22471;DHT22;11402;51.374;6.594;2022-08-14T02:53:44;19.50;99.90
22471;DHT22;11402;51.374;6.594;2022-08-14T02:56:12;19.50;99.90
22471;DHT22;11402;51.374;6.594;2022-08-14T02:58:49;19.60;99.90
22471;DHT22;11402;51.374;6.594;2022-08-14T03:01:19;19.60;99.90
22471;DHT22;11402;51.374;6.594;2022-08-14T03:03:46;19.70;99.90
22471;DHT22;11402;51.374;6.594;2022-08-14T03:06:17;19.50;99.90
22471;DHT22;11402;51.374;6.594;2022-08-14T03:08:45;19.50;99.90
22471;DHT22;11402;51.374;6.594;2022-08-14T03:11:13;19.40;99.90
22471;DHT22;11402;51.374;6.594;2022-08-14T03:13:41;19.40;99.90
22471;DHT22;11402;51.374;6.594;2022-08-14T03:16:16;19.30;99.90
22471;DHT22;11402;51.374;6.594;2022-08-14T03:18:44;19.30;99.90
22471;DHT22;11402;51.374;6.594;2022-08-14T03:21:13;19.30;99.90
22471;DHT22;11402;51.374;6.594;2022-08-14T03:23:41;18.90;99.90
22471;DHT22;11402;51.374;6.594;2022-08-14T03:26:09;19.00;99.90
22471;DHT22;11402;51.374;6.594;2022-08-14T03:28:35;19.20;99.90
22471;DHT22;11402;51.374;6.594;2022-08-14T03:31:05;19.00;99.90
22471;DHT22;11402;51.374;6.594;2022-08-14T03:33:30;19.10;99.90
22471;DHT22;11402;51.374;6.594;2022-08-14T03:35:56;19.00;99.90
22471;DHT22;11402;51.374;6.594;2022-08-14T03:38:22;19.20;99.90
22471;DHT22;11402;51.374;6.594;2022-08-14T03:40:47;19.20;99.90
22471;DHT22;11402;51.374;6.594;2022-08-14T03:43:14;19.20;99.90
22471;DHT22;11402;51.374;6.594;2022-08-14T03:45:40;19.30;99.90
22471;DHT22;11402;51.374;6.594;2022-08-14T03:48:14;19.10;99.90
22471;DHT22;11402;51.374;6.594;2022-08-14T03:50:48;19.20;99.90
22471;DHT22;11402;51.374;6.594;2022-08-14T03:53:16;19.20;99.90
22471;DHT22;11402;51.374;6.594;2022-08-14T03:55:42;19.10;99.90
22471;DHT22;11402;51.374;6.594;2022-08-14T03:58:09;19.10;99.90
22471;DHT22;11402;51.374;6.594;2022-08-14T04:00:36;19.00;99.90
22471;DHT22;11402;51.374;6.594;2022-08-14T04:03:03;19.10;99.90
22471;DHT22;11402;51.374;6.594;2022-08-14T04:05:30;19.10;99.90
22471;DHT22;11402;51.374;6.594;2022-08-14T04:07:57;19.00;99.90
22471;DHT22;11402;51.374;6.594;2022-08-14T04:10:23;18.90;99.90
22471;DHT22;11402;51.374;6.594;2022-08-14T04:12:49;19.00;99.90
22471;DHT22;11402;51.374;6.594;2022-08-14T04:15:14;19.00;99.90
22471;DHT22;11402;51.374;6.594;2022-08-14T04:17:44;19.10;99.90
22471;DHT22;11402;51.374;6.594;2022-08-14T04:20:10;19.00;99.90
22471;DHT22;11402;51.374;6.594;2022-08-14T04:22:37;19.10;99.90
22471;DHT22;11402;51.374;6.594;2022-08-14T04:25:07;19.00;99.90
22471;DHT22;11402;51.374;6.594;2022-08-14T04:27:32;18.70;99.90
22471;DHT22;11402;51.374;6.594;2022-08-14T04:30:00;18.90;99.90
22471;DHT22;11402;51.374;6.594;2022-08-14T04:32:26;18.80;99.90
22471;DHT22;11402;51.374;6.594;2022-08-14T04:34:53;18.70;99.90
22471;DHT22;11402;51.374;6.594;2022-08-14T04:37:23;18.80;99.90
22471;DHT22;11402;51.374;6.594;2022-08-14T04:40:08;18.90;99.90
22471;DHT22;11402;51.374;6.594;2022-08-14T04:42:52;18.90;99.90
22471;DHT22;11402;51.374;6.594;2022-08-14T04:45:37;18.70;99.90
22471;DHT22;11402;51.374;6.594;2022-08-14T04:48:12;18.80;99.90
22471;DHT22;11402;51.374;6.594;2022-08-14T04:50:50;18.70;99.90
22471;DHT22;11402;51.374;6.594;2022-08-14T04:53:21;18.80;99.90
22471;DHT22;11402;51.374;6.594;2022-08-14T04:55:48;18.90;99.90
22471;DHT22;11402;51.374;6.594;2022-08-14T04:58:19;18.90;99.90
22471;DHT22;11402;51.374;6.594;2022-08-14T05:00:47;18.90;99.90
22471;DHT22;11402;51.374;6.594;2022-08-14T05:03:19;18.70;99.90
22471;DHT22;11402;51.374;6.594;2022-08-14T05:05:47;18.90;99.90
22471;DHT22;11402;51.374;6.594;2022-08-14T05:08:12;18.90;99.90
22471;DHT22;11402;51.374;6.594;2022-08-14T05:10:43;19.10;99.90
22471;DHT22;11402;51.374;6.594;2022-08-14T05:13:10;19.20;99.90
22471;DHT22;11402;51.374;6.594;2022-08-14T05:15:39;19.20;99.90
22471;DHT22;11402;51.374;6.594;2022-08-14T05:18:10;19.10;99.90
22471;DHT22;11402;51.374;6.594;2022-08-14T05:20:41;19.20;99.90
22471;DHT22;11402;51.374;6.594;2022-08-14T05:23:10;19.30;99.90
22471;DHT22;11402;51.374;6.594;2022-08-14T05:25:36;19.20;99.90
22471;DHT22;11402;51.374;6.594;2022-08-14T05:28:17;19.30;99.90
22471;DHT22;11402;51.374;6.594;2022-08-14T05:30:51;19.40;99.90
22471;DHT22;11402;51.374;6.594;2022-08-14T05:33:18;19.50;99.90
22471;DHT22;11402;51.374;6.594;2022-08-14T05:35:46;19.60;99.90
22471;DHT22;11402;51.374;6.594;2022-08-14T05:38:15;19.40;99.90
22471;DHT22;11402;51.374;6.594;2022-08-14T05:40:45;19.90;99.90
22471;DHT22;11402;51.374;6.594;2022-08-14T05:43:14;20.40;99.90
22471;DHT22;11402;51.374;6.594;2022-08-14T05:45:42;20.60;99.90
22471;DHT22;11402;51.374;6.594;2022-08-14T05:48:11;20.40;99.90
22471;DHT22;11402;51.374;6.594;2022-08-14T05:53:08;20.50;99.90
22471;DHT22;11402;51.374;6.594;2022-08-14T05:55:33;20.60;99.90
22471;DHT22;11402;51.374;6.594;2022-08-14T05:58:05;20.90;99.90
22471;DHT22;11402;51.374;6.594;2022-08-14T06:03:04;21.20;99.90
22471;DHT22;11402;51.374;6.594;2022-08-14T06:05:30;20.80;99.90
22471;DHT22;11402;51.374;6.594;2022-08-14T06:10:25;21.60;99.90
22471;DHT22;11402;51.374;6.594;2022-08-14T06:12:51;21.50;99.90
22471;DHT22;11402;51.374;6.594;2022-08-14T06:15:16;21.40;99.90
22471;DHT22;11402;51.374;6.594;2022-08-14T06:17:47;21.50;99.90
22471;DHT22;11402;51.374;6.594;2022-08-14T06:20:13;21.60;99.90
22471;DHT22;11402;51.374;6.594;2022-08-14T06:22:43;21.60;99.90
22471;DHT22;11402;51.374;6.594;2022-08-14T06:25:10;21.80;99.90
22471;DHT22;11402;51.374;6.594;2022-08-14T06:27:37;22.00;99.90
22471;DHT22;11402;51.374;6.594;2022-08-14T06:30:06;22.00;99.90
22471;DHT22;11402;51.374;6.594;2022-08-14T06:32:32;22.10;99.90
22471;DHT22;11402;51.374;6.594;2022-08-14T06:34:57;22.30;99.90
22471;DHT22;11402;51.374;6.594;2022-08-14T06:37:23;22.50;99.90
22471;DHT22;11402;51.374;6.594;2022-08-14T06:39:48;22.60;99.90
22471;DHT22;11402;51.374;6.594;2022-08-14T06:42:14;22.60;99.90
22471;DHT22;11402;51.374;6.594;2022-08-14T06:44:40;22.70;99.90
22471;DHT22;11402;51.374;6.594;2022-08-14T06:47:06;22.80;99.90
22471;DHT22;11402;51.374;6.594;2022-08-14T06:49:32;22.80;99.90
22471;DHT22;11402;51.374;6.594;2022-08-14T06:51:57;22.80;99.90
22471;DHT22;11402;51.374;6.594;2022-08-14T06:54:24;22.90;99.90
22471;DHT22;11402;51.374;6.594;2022-08-14T06:56:50;23.10;99.90
22471;DHT22;11402;51.374;6.594;2022-08-14T06:59:15;23.20;99.90
22471;DHT22;11402;51.374;6.594;2022-08-14T07:01:41;23.20;99.90
22471;DHT22;11402;51.374;6.594;2022-08-14T07:04:25;23.30;99.90
22471;DHT22;11402;51.374;6.594;2022-08-14T07:07:10;23.40;99.90
22471;DHT22;11402;51.374;6.594;2022-08-14T07:09:35;23.60;99.90
22471;DHT22;11402;51.374;6.594;2022-08-14T07:12:01;23.60;99.90
22471;DHT22;11402;51.374;6.594;2022-08-14T07:14:27;23.70;99.90
22471;DHT22;11402;51.374;6.594;2022-08-14T07:16:52;23.70;99.90
22471;DHT22;11402;51.374;6.594;2022-08-14T07:19:18;23.70;99.90
22471;DHT22;11402;51.374;6.594;2022-08-14T07:21:44;23.80;99.90
22471;DHT22;11402;51.374;6.594;2022-08-14T07:24:09;23.90;99.90
22471;DHT22;11402;51.374;6.594;2022-08-14T07:26:35;24.00;99.90
22471;DHT22;11402;51.374;6.594;2022-08-14T07:29:00;24.00;99.90
22471;DHT22;11402;51.374;6.594;2022-08-14T07:31:26;24.20;99.90
22471;DHT22;11402;51.374;6.594;2022-08-14T07:33:52;24.20;99.90
22471;DHT22;11402;51.374;6.594;2022-08-14T07:36:19;24.20;99.90
22471;DHT22;11402;51.374;6.594;2022-08-14T07:38:45;24.20;99.90
22471;DHT22;11402;51.374;6.594;2022-08-14T07:41:11;24.30;99.90
22471;DHT22;11402;51.374;6.594;2022-08-14T07:43:38;24.30;99.90
22471;DHT22;11402;51.374;6.594;2022-08-14T07:46:04;24.40;99.90
22471;DHT22;11402;51.374;6.594;2022-08-14T07:48:30;24.60;99.90
22471;DHT22;11402;51.374;6.594;2022-08-14T07:50:56;24.60;99.90
22471;DHT22;11402;51.374;6.594;2022-08-14T07:53:22;24.60;99.90
22471;DHT22;11402;51.374;6.594;2022-08-14T07:55:48;24.80;99.90
22471;DHT22;11402;51.374;6.594;2022-08-14T07:58:15;24.80;99.90
22471;DHT22;11402;51.374;6.594;2022-08-14T08:00:41;24.90;99.90
22471;DHT22;11402;51.374;6.594;2022-08-14T08:03:08;25.00;99.90
22471;DHT22;11402;51.374;6.594;2022-08-14T08:05:38;25.00;99.90
22471;DHT22;11402;51.374;6.594;2022-08-14T08:08:05;25.20;99.90
22471;DHT22;11402;51.374;6.594;2022-08-14T08:10:31;25.30;99.90
22471;DHT22;11402;51.374;6.594;2022-08-14T08:13:03;25.30;99.90
22471;DHT22;11402;51.374;6.594;2022-08-14T08:15:51;25.40;99.90
22471;DHT22;11402;51.374;6.594;2022-08-14T08:18:23;25.50;99.90
22471;DHT22;11402;51.374;6.594;2022-08-14T08:20:51;25.60;99.90
22471;DHT22;11402;51.374;6.594;2022-08-14T08:23:19;25.50;99.90
22471;DHT22;11402;51.374;6.594;2022-08-14T08:25:48;25.70;99.90
22471;DHT22;11402;51.374;6.594;2022-08-14T08:28:21;25.70;99.90
22471;DHT22;11402;51.374;6.594;2022-08-14T08:30:53;25.70;99.90
22471;DHT22;11402;51.374;6.594;2022-08-14T08:33:21;25.80;99.90
22471;DHT22;11402;51.374;6.594;2022-08-14T08:35:48;26.00;99.90
22471;DHT22;11402;51.374;6.594;2022-08-14T08:38:18;25.90;99.90
22471;DHT22;11402;51.374;6.594;2022-08-14T08:40:55;26.00;99.90
22471;DHT22;11402;51.374;6.594;2022-08-14T08:43:26;26.00;99.90
22471;DHT22;11402;51.374;6.594;2022-08-14T08:45:55;26.00;99.90
22471;DHT22;11402;51.374;6.594;2022-08-14T08:48:25;26.10;99.90
22471;DHT22;11402;51.374;6.594;2022-08-14T08:50:54;26.20;99.90
22471;DHT22;11402;51.374;6.594;2022-08-14T08:53:20;26.20;99.90
22471;DHT22;11402;51.374;6.594;2022-08-14T08:55:45;26.20;99.90
22471;DHT22;11402;51.374;6.594;2022-08-14T08:58:18;26.20;99.90
22471;DHT22;11402;51.374;6.594;2022-08-14T09:00:55;26.40;99.90
22471;DHT22;11402;51.374;6.594;2022-08-14T09:03:23;26.40;99.90
22471;DHT22;11402;51.374;6.594;2022-08-14T09:05:51;26.50;99.90
22471;DHT22;11402;51.374;6.594;2022-08-14T09:08:22;26.50;99.90
22471;DHT22;11402;51.374;6.594;2022-08-14T09:10:52;26.50;99.90
22471;DHT22;11402;51.374;6.594;2022-08-14T09:13:19;26.60;99.90
22471;DHT22;11402;51.374;6.594;2022-08-14T09:15:47;26.70;99.90
22471;DHT22;11402;51.374;6.594;2022-08-14T09:18:15;26.70;99.90
22471;DHT22;11402;51.374;6.594;2022-08-14T09:20:43;26.70;99.90
22471;DHT22;11402;51.374;6.594;2022-08-14T09:23:10;26.80;99.90
22471;DHT22;11402;51.374;6.594;2022-08-14T09:25:38;26.90;99.90
22471;DHT22;11402;51.374;6.594;2022-08-14T09:28:06;27.00;99.90
22471;DHT22;11402;51.374;6.594;2022-08-14T09:30:34;26.90;99.90
22471;DHT22;11402;51.374;6.594;2022-08-14T09:38:32;27.10;99.90
22471;DHT22;11402;51.374;6.594;2022-08-14T09:46:27;27.10;99.90
22471;DHT22;11402;51.374;6.594;2022-08-14T09:49:11;27.10;99.90
22471;DHT22;11402;51.374;6.594;2022-08-14T09:51:36;27.30;99.90
22471;DHT22;11402;51.374;6.594;2022-08-14T09:54:06;27.40;99.90
22471;DHT22;11402;51.374;6.594;2022-08-14T09:56:48;27.40;99.90
22471;DHT22;11402;51.374;6.594;2022-08-14T09:59:16;27.70;99.90
22471;DHT22;11402;51.374;6.594;2022-08-14T10:01:47;27.90;99.90
22471;DHT22;11402;51.374;6.594;2022-08-14T10:04:19;27.90;99.90
22471;DHT22;11402;51.374;6.594;2022-08-14T10:06:46;27.90;99.90
22471;DHT22;11402;51.374;6.594;2022-08-14T10:09:12;28.00;99.90
22471;DHT22;11402;51.374;6.594;2022-08-14T10:11:39;28.00;99.90
22471;DHT22;11402;51.374;6.594;2022-08-14T10:14:17;28.00;99.90
22471;DHT22;11402;51.374;6.594;2022-08-14T10:16:48;28.00;99.90
22471;DHT22;11402;51.374;6.594;2022-08-14T10:19:21;28.10;99.90
22471;DHT22;11402;51.374;6.594;2022-08-14T10:22:05;28.10;99.90
22471;DHT22;11402;51.374;6.594;2022-08-14T10:24:40;28.10;99.90
22471;DHT22;11402;51.374;6.594;2022-08-14T10:27:19;28.30;99.90
22471;DHT22;11402;51.374;6.594;2022-08-14T10:29:52;28.20;99.90
22471;DHT22;11402;51.374;6.594;2022-08-14T10:32:19;28.20;99.90
22471;DHT22;11402;51.374;6.594;2022-08-14T10:34:48;28.30;99.90
22471;DHT22;11402;51.374;6.594;2022-08-14T10:37:15;28.30;99.90
22471;DHT22;11402;51.374;6.594;2022-08-14T10:39:44;28.40;99.90
22471;DHT22;11402;51.374;6.594;2022-08-14T10:42:13;28.40;99.90
22471;DHT22;11402;51.374;6.594;2022-08-14T10:44:44;28.30;99.90
22471;DHT22;11402;51.374;6.594;2022-08-14T10:47:14;28.30;99.90
22471;DHT22;11402;51.374;6.594;2022-08-14T10:49:54;28.40;99.90
22471;DHT22;11402;51.374;6.594;2022-08-14T10:52:28;28.40;99.90
22471;DHT22;11402;51.374;6.594;2022-08-14T10:55:12;28.40;99.90
22471;DHT22;11402;51.374;6.594;2022-08-14T10:57:52;28.40;99.90
22471;DHT22;11402;51.374;6.594;2022-08-14T11:00:23;28.40;99.90
22471;DHT22;11402;51.374;6.594;2022-08-14T11:02:58;28.30;99.90
22471;DHT22;11402;51.374;6.594;2022-08-14T11:05:36;28.40;99.90
22471;DHT22;11402;51.374;6.594;2022-08-14T11:08:02;28.50;99.90
22471;DHT22;11402;51.374;6.594;2022-08-14T11:10:48;28.60;99.90
22471;DHT22;11402;51.374;6.594;2022-08-14T11:13:26;28.70;99.90
22471;DHT22;11402;51.374;6.594;2022-08-14T11:15:53;28.70;99.90
22471;DHT22;11402;51.374;6.594;2022-08-14T11:18:21;28.60;99.90
22471;DHT22;11402;51.374;6.594;2022-08-14T11:20:49;28.60;99.90
22471;DHT22;11402;51.374;6.594;2022-08-14T11:23:16;28.70;99.90
22471;DHT22;11402;51.374;6.594;2022-08-14T11:25:44;28.80;99.90
22471;DHT22;11402;51.374;6.594;2022-08-14T11:28:14;28.70;99.90
22471;DHT22;11402;51.374;6.594;2022-08-14T11:30:42;28.50;99.90
22471;DHT22;11402;51.374;6.594;2022-08-14T11:33:09;28.40;99.90
22471;DHT22;11402;51.374;6.594;2022-08-14T11:35:35;28.30;99.90
22471;DHT22;11402;51.374;6.594;2022-08-14T11:38:04;28.50;99.90
22471;DHT22;11402;51.374;6.594;2022-08-14T11:40:36;28.80;99.90
22471;DHT22;11402;51.374;6.594;2022-08-14T11:43:05;28.80;99.90
22471;DHT22;11402;51.374;6.594;2022-08-14T11:45:38;28.90;99.90
22471;DHT22;11402;51.374;6.594;2022-08-14T11:48:17;29.00;99.90
22471;DHT22;11402;51.374;6.594;2022-08-14T11:50:44;28.90;99.90
22471;DHT22;11402;51.374;6.594;2022-08-14T11:53:27;29.00;99.90
22471;DHT22;11402;51.374;6.594;2022-08-14T11:55:57;29.10;99.90
22471;DHT22;11402;51.374;6.594;2022-08-14T11:58:26;29.30;99.90
22471;DHT22;11402;51.374;6.594;2022-08-14T12:00:58;29.20;99.90
22471;DHT22;11402;51.374;6.594;2022-08-14T12:03:44;29.10;99.90
22471;DHT22;11402;51.374;6.594;2022-08-14T12:06:19;29.10;99.90
22471;DHT22;11402;51.374;6.594;2022-08-14T12:08:45;29.10;99.90
22471;DHT22;11402;51.374;6.594;2022-08-14T12:11:13;29.30;99.90
22471;DHT22;11402;51.374;6.594;2022-08-14T12:13:41;29.30;99.90
22471;DHT22;11402;51.374;6.594;2022-08-14T12:16:12;29.30;99.90
22471;DHT22;11402;51.374;6.594;2022-08-14T12:18:40;29.50;99.90
22471;DHT22;11402;51.374;6.594;2022-08-14T12:21:21;29.50;99.90
22471;DHT22;11402;51.374;6.594;2022-08-14T12:24:03;29.60;99.90
22471;DHT22;11402;51.374;6.594;2022-08-14T12:26:30;29.60;99.90
22471;DHT22;11402;51.374;6.594;2022-08-14T12:29:09;29.60;99.90
22471;DHT22;11402;51.374;6.594;2022-08-14T12:31:36;29.70;99.90
22471;DHT22;11402;51.374;6.594;2022-08-14T12:34:04;29.80;99.90
22471;DHT22;11402;51.374;6.594;2022-08-14T12:36:30;29.70;99.90
22471;DHT22;11402;51.374;6.594;2022-08-14T12:38:58;29.60;99.90
22471;DHT22;11402;51.374;6.594;2022-08-14T12:41:26;29.90;99.90
22471;DHT22;11402;51.374;6.594;2022-08-14T12:43:55;29.80;99.90
22471;DHT22;11402;51.374;6.594;2022-08-14T12:49:01;29.70;99.90
22471;DHT22;11402;51.374;6.594;2022-08-14T12:51:32;29.90;99.90
22471;DHT22;11402;51.374;6.594;2022-08-14T12:53:59;30.10;99.90
22471;DHT22;11402;51.374;6.594;2022-08-14T12:56:25;30.10;99.90
22471;DHT22;11402;51.374;6.594;2022-08-14T12:58:54;30.00;99.90
22471;DHT22;11402;51.374;6.594;2022-08-14T13:01:24;29.90;99.90
22471;DHT22;11402;51.374;6.594;2022-08-14T13:03:51;29.90;99.90
22471;DHT22;11402;51.374;6.594;2022-08-14T13:06:17;29.90;99.90
22471;DHT22;11402;51.374;6.594;2022-08-14T13:08:44;30.00;99.90
22471;DHT22;11402;51.374;6.594;2022-08-14T13:11:11;30.10;99.90
22471;DHT22;11402;51.374;6.594;2022-08-14T13:13:41;30.00;99.90
22471;DHT22;11402;51.374;6.594;2022-08-14T13:16:07;30.20;99.90
22471;DHT22;11402;51.374;6.594;2022-08-14T13:18:35;30.10;99.90
22471;DHT22;11402;51.374;6.594;2022-08-14T13:21:02;30.10;99.90
22471;DHT22;11402;51.374;6.594;2022-08-14T13:23:33;30.00;99.90
22471;DHT22;11402;51.374;6.594;2022-08-14T13:25:59;29.90;99.90
22471;DHT22;11402;51.374;6.594;2022-08-14T13:28:26;30.10;99.90
22471;DHT22;11402;51.374;6.594;2022-08-14T13:30:52;30.10;99.90
22471;DHT22;11402;51.374;6.594;2022-08-14T13:33:19;29.80;99.90
22471;DHT22;11402;51.374;6.594;2022-08-14T13:35:48;30.00;99.90
22471;DHT22;11402;51.374;6.594;2022-08-14T13:38:18;30.00;99.90
22471;DHT22;11402;51.374;6.594;2022-08-14T13:40:48;29.90;99.90
22471;DHT22;11402;51.374;6.594;2022-08-14T13:43:17;30.10;99.90
22471;DHT22;11402;51.374;6.594;2022-08-14T13:45:42;30.40;99.90
22471;DHT22;11402;51.374;6.594;2022-08-14T13:48:11;30.20;99.90
22471;DHT22;11402;51.374;6.594;2022-08-14T13:50:38;30.40;99.90
22471;DHT22;11402;51.374;6.594;2022-08-14T13:53:06;30.50;99.90
22471;DHT22;11402;51.374;6.594;2022-08-14T13:55:34;30.40;99.90
22471;DHT22;11402;51.374;6.594;2022-08-14T13:58:01;30.30;99.90
22471;DHT22;11402;51.374;6.594;2022-08-14T14:00:27;30.30;99.90
22471;DHT22;11402;51.374;6.594;2022-08-14T14:02:57;30.40;99.90
22471;DHT22;11402;51.374;6.594;2022-08-14T14:05:24;30.40;99.90
22471;DHT22;11402;51.374;6.594;2022-08-14T14:07:52;30.50;99.90
22471;DHT22;11402;51.374;6.594;2022-08-14T14:10:20;30.50;99.90
22471;DHT22;11402;51.374;6.594;2022-08-14T14:12:47;30.50;99.90
22471;DHT22;11402;51.374;6.594;2022-08-14T14:15:15;30.50;99.90
22471;DHT22;11402;51.374;6.594;2022-08-14T14:17:42;30.50;99.90
22471;DHT22;11402;51.374;6.594;2022-08-14T14:20:11;30.40;99.90
22471;DHT22;11402;51.374;6.594;2022-08-14T14:22:42;30.30;99.90
22471;DHT22;11402;51.374;6.594;2022-08-14T14:25:13;30.40;99.90
22471;DHT22;11402;51.374;6.594;2022-08-14T14:27:41;30.40;99.90
22471;DHT22;11402;51.374;6.594;2022-08-14T14:30:10;30.20;99.90
22471;DHT22;11402;51.374;6.594;2022-08-14T14:32:38;30.20;99.90
22471;DHT22;11402;51.374;6.594;2022-08-14T14:35:09;30.30;99.90
22471;DHT22;11402;51.374;6.594;2022-08-14T14:37:37;30.30;99.90
22471;DHT22;11402;51.374;6.594;2022-08-14T14:40:04;30.20;99.90
22471;DHT22;11402;51.374;6.594;2022-08-14T14:42:31;30.20;99.90
22471;DHT22;11402;51.374;6.594;2022-08-14T14:45:09;30.30;99.90
22471;DHT22;11402;51.374;6.594;2022-08-14T14:47:42;30.30;99.90
22471;DHT22;11402;51.374;6.594;2022-08-14T14:50:10;30.20;99.90
22471;DHT22;11402;51.374;6.594;2022-08-14T14:52:36;30.20;99.90
22471;DHT22;11402;51.374;6.594;2022-08-14T14:55:02;30.30;99.90
22471;DHT22;11402;51.374;6.594;2022-08-14T14:57:29;30.30;99.90
22471;DHT22;11402;51.374;6.594;2022-08-14T14:59:55;30.40;99.90
22471;DHT22;11402;51.374;6.594;2022-08-14T15:02:43;30.40;99.90
22471;DHT22;11402;51.374;6.594;2022-08-14T15:05:11;30.40;99.90
22471;DHT22;11402;51.374;6.594;2022-08-14T15:07:37;30.40;99.90
22471;DHT22;11402;51.374;6.594;2022-08-14T15:10:05;30.40;99.90
22471;DHT22;11402;51.374;6.594;2022-08-14T15:12:31;30.40;99.90
22471;DHT22;11402;51.374;6.594;2022-08-14T15:14:57;30.70;99.90
22471;DHT22;11402;51.374;6.594;2022-08-14T15:17:23;30.70;99.90
22471;DHT22;11402;51.374;6.594;2022-08-14T15:19:49;30.60;99.90
22471;DHT22;11402;51.374;6.594;2022-08-14T15:22:15;30.50;99.90
22471;DHT22;11402;51.374;6.594;2022-08-14T15:24:42;30.50;99.90
22471;DHT22;11402;51.374;6.594;2022-08-14T15:27:08;30.60;99.90
22471;DHT22;11402;51.374;6.594;2022-08-14T15:29:34;30.50;99.90
22471;DHT22;11402;51.374;6.594;2022-08-14T15:32:04;30.40;99.90
22471;DHT22;11402;51.374;6.594;2022-08-14T15:34:30;30.20;99.90
22471;DHT22;11402;51.374;6.594;2022-08-14T15:36:55;30.20;99.90
22471;DHT22;11402;51.374;6.594;2022-08-14T15:39:21;30.30;99.90
22471;DHT22;11402;51.374;6.594;2022-08-14T15:41:46;30.30;99.90
22471;DHT22;11402;51.374;6.594;2022-08-14T15:44:13;30.20;99.90
22471;DHT22;11402;51.374;6.594;2022-08-14T15:46:38;30.20;99.90
22471;DHT22;11402;51.374;6.594;2022-08-14T15:49:04;30.20;99.90
22471;DHT22;11402;51.374;6.594;2022-08-14T15:51:33;30.30;99.90
22471;DHT22;11402;51.374;6.594;2022-08-14T15:53:59;30.30;99.90
22471;DHT22;11402;51.374;6.594;2022-08-14T15:56:24;30.30;99.90
22471;DHT22;11402;51.374;6.594;2022-08-14T15:58:50;30.30;99.90
22471;DHT22;11402;51.374;6.594;2022-08-14T16:01:15;30.40;99.90
22471;DHT22;11402;51.374;6.594;2022-08-14T16:03:45;30.30;99.90